createdAt,value
2018-11-26T00:00:36.560Z,159.00
2018-11-26T00:03:11.367Z,161.00
2018-11-26T00:05:43.417Z,163.00
2018-11-26T00:08:20.788Z,175.00
2018-11-26T00:11:30.685Z,159.50
2018-11-26T00:14:02.669Z,164.50
2018-11-26T00:16:34.200Z,154.20
2018-11-26T00:19:07.319Z,158.00
2018-11-26T00:21:38.836Z,163.00
2018-11-26T00:24:10.627Z,168.50
2018-11-26T00:26:42.783Z,175.50
2018-11-26T00:29:14.760Z,162.00
2018-11-26T00:31:46.647Z,183.00
2018-11-26T00:34:18.635Z,168.00
2018-11-26T00:36:50.731Z,187.00
2018-11-26T00:39:22.620Z,179.00
2018-11-26T00:41:54.357Z,169.25
2018-11-26T00:44:26.181Z,169.50
2018-11-26T00:46:58.371Z,176.75
2018-11-26T00:49:30.794Z,171.75
2018-11-26T00:52:02.701Z,170.25
2018-11-26T00:54:34.261Z,168.75
2018-11-26T00:57:06.179Z,167.50
2018-11-26T00:59:38.259Z,161.25
2018-11-26T01:02:13.316Z,187.00
2018-11-26T01:04:45.053Z,164.25
2018-11-26T01:07:16.595Z,180.75
2018-11-26T01:09:48.653Z,169.25
2018-11-26T01:12:20.169Z,170.00
2018-11-26T01:14:51.633Z,182.50
2018-11-26T01:17:23.921Z,169.25
2018-11-26T01:19:54.756Z,176.00
2018-11-26T01:22:25.061Z,169.25
2018-11-26T01:24:55.706Z,168.50
2018-11-26T01:27:25.703Z,164.75
2018-11-26T01:29:56.092Z,160.50
2018-11-26T01:32:26.216Z,167.50
2018-11-26T01:34:56.630Z,179.50
2018-11-26T01:37:26.848Z,194.75
2018-11-26T01:39:57.136Z,169.75
2018-11-26T01:42:27.504Z,168.00
2018-11-26T01:44:58.222Z,174.75
2018-11-26T01:47:28.945Z,171.75
2018-11-26T01:49:59.969Z,183.25
2018-11-26T01:52:29.896Z,185.25
2018-11-26T01:54:59.968Z,192.25
2018-11-26T01:57:30.480Z,205.25
2018-11-26T02:00:00.848Z,177.50
2018-11-26T02:02:31.226Z,183.50
2018-11-26T02:05:01.572Z,191.25
2018-11-26T02:07:31.967Z,150.20
2018-11-26T02:10:02.191Z,170.50
2018-11-26T02:12:32.290Z,161.50
2018-11-26T02:15:02.357Z,171.25
2018-11-26T02:17:32.682Z,175.50
2018-11-26T02:20:03.081Z,169.75
2018-11-26T02:22:33.174Z,181.00
2018-11-26T02:25:03.164Z,172.50
2018-11-26T02:27:33.225Z,174.75
2018-11-26T02:30:03.506Z,187.50
2018-11-26T02:32:33.788Z,195.00
2018-11-26T02:35:03.768Z,171.25
2018-11-26T02:37:33.643Z,179.50
2018-11-26T02:40:03.603Z,179.75
2018-11-26T02:42:33.849Z,182.50
2018-11-26T02:45:03.926Z,189.25
2018-11-26T02:47:33.879Z,175.25
2018-11-26T02:50:04.824Z,177.25
2018-11-26T02:52:34.703Z,188.50
2018-11-26T02:55:04.692Z,170.50
2018-11-26T02:57:34.510Z,178.75
2018-11-26T03:00:04.707Z,169.75
2018-11-26T03:02:34.843Z,171.50
2018-11-26T03:05:04.963Z,174.75
2018-11-26T03:07:34.827Z,168.75
2018-11-26T03:10:05.142Z,172.25
2018-11-26T03:12:35.078Z,167.75
2018-11-26T03:15:06.651Z,165.75
2018-11-26T03:17:36.866Z,172.00
2018-11-26T03:20:08.442Z,176.75
2018-11-26T03:22:38.623Z,180.00
2018-11-26T03:25:09.742Z,187.50
2018-11-26T03:27:39.753Z,182.75
2018-11-26T03:30:10.763Z,184.00
2018-11-26T03:32:40.734Z,190.00
2018-11-26T03:35:11.263Z,171.00
2018-11-26T03:37:41.295Z,170.75
2018-11-26T03:40:12.860Z,183.00
2018-11-26T03:42:42.946Z,187.00
2018-11-26T03:45:15.288Z,186.75
2018-11-26T03:47:46.325Z,207.00
2018-11-26T03:50:17.300Z,201.75
2018-11-26T03:52:48.329Z,201.50
2018-11-26T03:55:18.639Z,207.75
2018-11-26T03:57:48.722Z,201.25
2018-11-26T04:00:18.941Z,212.75
2018-11-26T04:02:49.028Z,202.75
2018-11-26T04:05:19.108Z,194.75
2018-11-26T04:07:54.882Z,196.25
2018-11-26T04:10:25.135Z,201.25
2018-11-26T04:12:55.226Z,208.25
2018-11-26T04:15:25.443Z,213.50
2018-11-26T04:17:55.526Z,213.75
2018-11-26T04:20:27.215Z,214.75
2018-11-26T04:22:58.860Z,204.75
2018-11-26T04:25:37.707Z,218.25
2018-11-26T04:28:09.603Z,213.50
2018-11-26T04:30:39.830Z,213.00
2018-11-26T04:33:10.028Z,225.00
2018-11-26T04:35:40.164Z,219.75
2018-11-26T04:38:10.260Z,211.00
2018-11-26T04:40:40.442Z,216.50
2018-11-26T04:43:10.452Z,218.75
2018-11-26T04:45:42.465Z,231.25
2018-11-26T04:48:12.862Z,221.75
2018-11-26T04:50:45.166Z,239.00
2018-11-26T04:53:15.696Z,223.00
2018-11-26T04:55:46.142Z,218.25
2018-11-26T04:58:16.297Z,207.00
2018-11-26T05:00:46.336Z,222.75
2018-11-26T05:03:16.339Z,227.75
2018-11-26T05:05:46.884Z,217.00
2018-11-26T05:08:16.997Z,197.75
2018-11-26T05:10:47.026Z,215.50
2018-11-26T05:13:19.172Z,209.75
2018-11-26T05:15:49.333Z,203.25
2018-11-26T05:18:25.641Z,207.50
2018-11-26T05:20:59.707Z,209.75
2018-11-26T05:23:29.711Z,199.50
2018-11-26T05:26:03.444Z,206.75
2018-11-26T05:28:33.469Z,203.75
2018-11-26T05:31:03.910Z,209.50
2018-11-26T05:33:34.439Z,197.50
2018-11-26T05:36:05.501Z,184.00
2018-11-26T05:38:35.752Z,191.00
2018-11-26T05:41:06.966Z,204.00
2018-11-26T05:43:37.589Z,201.25
2018-11-26T05:46:09.445Z,204.25
2018-11-26T05:48:46.765Z,200.25
2018-11-26T05:51:17.400Z,213.50
2018-11-26T05:53:48.316Z,196.25
2018-11-26T05:56:22.560Z,209.75
2018-11-26T05:58:56.515Z,194.00
2018-11-26T06:01:26.714Z,206.00
2018-11-26T06:03:56.813Z,212.75
2018-11-26T06:06:27.101Z,200.50
2018-11-26T06:08:57.041Z,207.75
2018-11-26T06:11:30.668Z,220.25
2018-11-26T06:14:00.618Z,202.00
2018-11-26T06:16:34.121Z,210.50
2018-11-26T06:30:36.828Z,206.50
2018-11-26T06:33:07.643Z,205.75
2018-11-26T06:35:37.824Z,214.50
2018-11-26T06:38:10.080Z,188.00
2018-11-26T06:40:40.536Z,213.25
2018-11-26T06:43:10.725Z,198.50
2018-11-26T06:45:41.251Z,204.25
2018-11-26T06:48:11.495Z,205.50
2018-11-26T06:50:45.153Z,217.50
2018-11-26T06:53:15.338Z,209.25
2018-11-26T06:55:45.385Z,217.50
2018-11-26T06:58:15.213Z,203.50
2018-11-26T07:00:45.511Z,206.50
2018-11-26T07:03:16.214Z,205.25
2018-11-26T07:05:46.249Z,206.25
2018-11-26T07:08:16.254Z,200.50
2018-11-26T07:10:46.292Z,203.25
2018-11-26T07:13:18.398Z,196.00
2018-11-26T07:15:49.542Z,187.00
2018-11-26T07:18:19.755Z,197.25
2018-11-26T07:20:52.046Z,191.25
2018-11-26T07:23:22.336Z,181.40
2018-11-26T07:25:55.539Z,182.60
2018-11-26T07:28:26.814Z,185.00
2018-11-26T07:31:01.261Z,182.80
2018-11-26T07:33:31.957Z,165.20
2018-11-26T07:36:02.951Z,176.00
2018-11-26T07:38:36.203Z,187.00
2018-11-26T07:41:06.368Z,188.00
2018-11-26T07:43:36.405Z,179.00
2018-11-26T07:46:06.974Z,179.40
2018-11-26T07:48:37.124Z,178.00
2018-11-26T07:51:07.802Z,162.40
2018-11-26T07:53:37.971Z,159.20
2018-11-26T07:56:08.186Z,166.60
2018-11-26T07:58:40.917Z,162.20
2018-11-26T08:01:14.478Z,158.40
2018-11-26T08:03:45.082Z,160.40
2018-11-26T08:06:15.105Z,164.20
2018-11-26T08:08:45.155Z,145.80
2018-11-26T08:11:15.292Z,172.40
2018-11-26T08:13:45.551Z,156.20
2018-11-26T08:16:16.553Z,169.40
2018-11-26T08:18:46.714Z,167.60
2018-11-26T08:23:48.961Z,154.25
2018-11-26T08:26:20.671Z,154.40
2018-11-26T08:28:52.353Z,160.80
2018-11-26T08:31:26.824Z,166.80
2018-11-26T08:34:02.214Z,160.00
2018-11-26T08:36:54.758Z,161.20
2018-11-26T08:39:45.372Z,152.50
2018-11-26T08:42:26.639Z,153.60
2018-11-26T08:46:06.677Z,150.80
2018-11-26T08:48:44.341Z,154.20
2018-11-26T08:51:16.786Z,140.40
2018-11-26T08:53:48.509Z,153.20
2018-11-26T08:56:20.052Z,150.60
2018-11-26T08:58:51.686Z,155.20
2018-11-26T09:01:27.926Z,157.40
2018-11-26T09:04:03.974Z,137.80
2018-11-26T09:06:41.895Z,142.60
2018-11-26T09:09:15.013Z,150.00
2018-11-26T09:11:46.564Z,143.20
2018-11-26T09:14:18.076Z,144.60
2018-11-26T09:16:49.936Z,145.00
2018-11-26T09:19:25.885Z,153.00
2018-11-26T09:21:57.465Z,152.00
2018-11-26T09:24:29.137Z,147.00
2018-11-26T09:27:00.737Z,149.20
2018-11-26T09:29:32.241Z,142.80
2018-11-26T09:32:03.888Z,145.20
2018-11-26T09:34:36.394Z,157.00
2018-11-26T09:37:10.261Z,155.80
2018-11-26T09:39:41.730Z,152.80
2018-11-26T09:42:13.223Z,145.20
2018-11-26T09:44:44.805Z,144.20
2018-11-26T09:47:16.275Z,143.80
2018-11-26T09:49:49.902Z,157.80
2018-11-26T09:52:21.602Z,148.40
2018-11-26T09:54:56.076Z,149.80
2018-11-26T09:57:27.647Z,153.20
2018-11-26T09:59:59.241Z,159.00
2018-11-26T10:02:31.058Z,159.00
2018-11-26T10:05:04.317Z,170.60
2018-11-26T10:07:35.922Z,150.80
2018-11-26T10:10:09.093Z,163.20
2018-11-26T10:12:41.817Z,156.40
2018-11-26T10:15:22.899Z,162.00
2018-11-26T10:17:54.592Z,158.20
2018-11-26T10:20:25.937Z,158.00
2018-11-26T10:22:57.370Z,166.80
2018-11-26T10:25:28.922Z,170.60
2018-11-26T10:28:00.362Z,157.00
2018-11-26T10:30:32.336Z,149.00
2018-11-26T10:33:03.722Z,167.20
2018-11-26T10:35:39.023Z,151.80
2018-11-26T10:38:10.445Z,130.60
2018-11-26T10:40:41.995Z,154.20
2018-11-26T10:43:14.116Z,146.40
2018-11-26T10:45:47.676Z,141.80
2018-11-26T10:48:19.120Z,148.00
2018-11-26T10:50:52.675Z,153.00
2018-11-26T10:53:25.092Z,142.00
2018-11-26T10:55:57.612Z,146.60
2018-11-26T10:58:30.019Z,151.20
2018-11-26T11:01:07.412Z,149.40
2018-11-26T11:03:39.997Z,153.20
2018-11-26T11:06:15.992Z,130.40
2018-11-26T11:08:48.319Z,140.60
2018-11-26T11:11:23.379Z,141.80
2018-11-26T11:13:53.574Z,131.80
2018-11-26T11:16:25.081Z,141.00
2018-11-26T11:18:56.597Z,132.80
2018-11-26T11:21:30.043Z,140.00
2018-11-26T11:24:01.664Z,136.80
2018-11-26T11:26:33.127Z,140.80
2018-11-26T11:29:04.766Z,145.20
2018-11-26T11:31:36.199Z,139.60
2018-11-26T11:34:08.228Z,148.80
2018-11-26T11:36:45.720Z,149.20
2018-11-26T11:39:18.147Z,146.00
2018-11-26T11:41:49.651Z,147.80
2018-11-26T11:44:25.575Z,144.20
2018-11-26T11:46:58.211Z,145.00
2018-11-26T11:49:30.519Z,153.40
2018-11-26T11:52:04.054Z,132.80
2018-11-26T11:54:35.711Z,149.20
2018-11-26T11:57:07.290Z,138.40
2018-11-26T11:59:38.895Z,141.80
2018-11-26T12:02:16.070Z,147.40
2018-11-26T12:04:45.714Z,148.20
2018-11-26T12:07:17.651Z,154.40
2018-11-26T12:09:49.387Z,158.20
2018-11-26T12:12:20.995Z,140.80
2018-11-26T12:14:52.490Z,153.00
2018-11-26T12:17:24.044Z,157.80
2018-11-26T12:19:55.643Z,164.60
2018-11-26T12:22:27.196Z,159.60
2018-11-26T12:24:59.658Z,168.20
2018-11-26T12:27:32.083Z,157.20
2018-11-26T12:30:03.836Z,161.00
2018-11-26T12:32:39.125Z,173.75
2018-11-26T12:35:11.114Z,196.50
2018-11-26T12:37:44.320Z,207.50
2018-11-26T12:40:18.398Z,211.75
2018-11-26T12:42:50.180Z,227.00
2018-11-26T12:45:24.411Z,246.75
2018-11-26T12:47:56.865Z,248.00
2018-11-26T12:50:30.520Z,242.75
2018-11-26T12:53:02.986Z,244.50
2018-11-26T12:55:34.794Z,246.75
2018-11-26T12:58:06.335Z,252.00
2018-11-26T13:00:38.406Z,243.00
2018-11-26T13:03:11.419Z,257.50
2018-11-26T13:05:43.359Z,257.00
2018-11-26T13:08:15.403Z,284.25
2018-11-26T13:10:47.080Z,286.60
2018-11-26T13:13:18.773Z,304.00
2018-11-26T13:15:50.358Z,289.60
2018-11-26T13:18:21.954Z,293.25
2018-11-26T13:20:53.660Z,286.00
2018-11-26T13:23:25.333Z,279.75
2018-11-26T13:25:56.880Z,271.75
2018-11-26T13:28:28.507Z,277.00
2018-11-26T13:31:00.008Z,273.25
2018-11-26T13:33:31.534Z,286.50
2018-11-26T13:36:03.021Z,284.75
2018-11-26T13:38:35.052Z,277.25
2018-11-26T13:41:06.660Z,278.75
2018-11-26T13:43:37.996Z,263.75
2018-11-26T13:46:11.125Z,261.00
2018-11-26T13:48:42.574Z,264.75
2018-11-26T13:51:14.136Z,262.75
2018-11-26T13:53:45.813Z,263.75
2018-11-26T13:56:17.352Z,281.25
2018-11-26T13:58:48.728Z,264.25
2018-11-26T14:01:20.366Z,282.50
2018-11-26T14:03:51.949Z,274.50
2018-11-26T14:06:23.565Z,283.25
2018-11-26T14:08:55.456Z,267.00
2018-11-26T14:11:27.293Z,281.00
2018-11-26T14:13:58.838Z,288.50
2018-11-26T14:16:30.427Z,292.00
2018-11-26T14:19:01.956Z,306.20
2018-11-26T14:21:33.531Z,313.00
2018-11-26T14:24:05.074Z,304.00
2018-11-26T14:26:36.627Z,301.80
2018-11-26T14:29:08.833Z,339.75
2018-11-26T14:31:40.385Z,348.20
2018-11-26T14:34:12.264Z,353.00
2018-11-26T14:36:43.722Z,358.00
2018-11-26T14:39:15.945Z,353.20
2018-11-26T14:41:47.480Z,347.40
2018-11-26T14:44:19.325Z,375.80
2018-11-26T14:46:50.893Z,365.80
2018-11-26T14:49:22.755Z,367.20
2018-11-26T14:51:54.430Z,389.80
2018-11-26T14:54:25.863Z,391.00
2018-11-26T14:56:57.435Z,396.00
2018-11-26T14:59:28.910Z,393.60
2018-11-26T15:02:00.576Z,380.00
2018-11-26T15:04:32.181Z,387.00
2018-11-26T15:07:03.582Z,400.80
2018-11-26T15:09:35.824Z,396.40
2018-11-26T15:12:07.501Z,402.40
2018-11-26T15:14:39.128Z,408.20
2018-11-26T15:17:11.166Z,431.83
2018-11-26T15:19:43.755Z,425.00
2018-11-26T15:22:15.323Z,416.33
2018-11-26T15:24:46.999Z,415.00
2018-11-26T15:27:18.437Z,415.00
2018-11-26T15:29:50.037Z,392.00
2018-11-26T15:32:21.595Z,418.60
2018-11-26T15:34:55.270Z,410.20
2018-11-26T15:37:26.751Z,403.00
2018-11-26T15:39:58.849Z,410.00
2018-11-26T15:42:30.560Z,433.40
2018-11-26T15:45:02.264Z,384.60
2018-11-26T15:47:34.635Z,389.80
2018-11-26T15:50:06.700Z,398.60
2018-11-26T15:52:39.004Z,382.80
2018-11-26T15:55:18.040Z,390.00
2018-11-26T15:57:49.686Z,406.20
2018-11-26T16:00:24.366Z,426.80
2018-11-26T16:02:56.351Z,412.00
2018-11-26T16:05:31.607Z,419.50
2018-11-26T16:08:04.920Z,414.33
2018-11-26T16:10:37.069Z,422.83
2018-11-26T16:13:10.449Z,431.20
2018-11-26T16:15:43.548Z,407.60
2018-11-26T16:18:18.793Z,429.40
2018-11-26T16:20:51.198Z,442.67
2018-11-26T16:23:22.720Z,449.20
2018-11-26T16:25:54.624Z,440.80
2018-11-26T16:28:26.540Z,444.00
2018-11-26T16:30:58.066Z,437.80
2018-11-26T16:33:29.751Z,452.00
2018-11-26T16:36:01.546Z,443.60
2018-11-26T16:38:33.034Z,466.60
2018-11-26T16:41:05.209Z,461.20
2018-11-26T16:43:37.204Z,442.80
2018-11-26T16:46:09.967Z,451.40
2018-11-26T16:48:41.598Z,466.20
2018-11-26T16:51:13.224Z,458.80
2018-11-26T16:53:45.600Z,452.20
2018-11-26T16:56:17.429Z,448.80
2018-11-26T16:58:49.003Z,458.40
2018-11-26T17:01:20.780Z,444.20
2018-11-26T17:03:52.411Z,463.40
2018-11-26T17:06:24.131Z,486.60
2018-11-26T17:08:55.576Z,459.20
2018-11-26T17:11:27.771Z,473.00
2018-11-26T17:13:59.357Z,440.40
2018-11-26T17:16:32.271Z,452.00
2018-11-26T17:19:03.976Z,467.80
2018-11-26T17:21:35.913Z,444.20
2018-11-26T17:24:08.157Z,466.80
2018-11-26T17:26:39.906Z,456.60
2018-11-26T17:29:11.654Z,464.40
2018-11-26T17:31:43.245Z,469.60
2018-11-26T17:34:14.839Z,490.00
2018-11-26T17:36:46.472Z,458.60
2018-11-26T17:39:18.061Z,463.60
2018-11-26T17:41:49.969Z,470.20
2018-11-26T17:44:22.426Z,486.20
2018-11-26T17:46:54.287Z,463.40
2018-11-26T17:49:26.274Z,482.20
2018-11-26T17:51:57.876Z,480.40
2018-11-26T17:54:29.535Z,485.60
2018-11-26T17:57:01.033Z,508.20
2018-11-26T17:59:32.915Z,523.80
2018-11-26T18:02:04.745Z,514.20
2018-11-26T18:04:36.500Z,509.40
2018-11-26T18:07:08.296Z,505.00
2018-11-26T18:09:41.084Z,517.80
2018-11-26T18:12:13.224Z,496.80
2018-11-26T18:14:44.878Z,496.40
2018-11-26T18:17:17.098Z,485.60
2018-11-26T18:19:48.972Z,490.80
2018-11-26T18:22:20.917Z,463.60
2018-11-26T18:24:52.633Z,478.60
2018-11-26T18:27:24.295Z,475.80
2018-11-26T18:30:00.330Z,486.40
2018-11-26T18:32:33.517Z,475.80
2018-11-26T18:35:05.372Z,452.00
2018-11-26T18:37:36.967Z,494.00
2018-11-26T18:40:14.068Z,465.40
2018-11-26T18:42:45.838Z,465.80
2018-11-26T18:45:19.535Z,481.80
2018-11-26T18:47:51.671Z,476.80
2018-11-26T18:50:24.152Z,484.80
2018-11-26T18:52:55.996Z,474.00
2018-11-26T18:55:27.986Z,479.80
2018-11-26T18:57:59.703Z,473.60
2018-11-26T19:00:33.885Z,483.20
2018-11-26T19:03:05.592Z,462.20
2018-11-26T19:05:38.270Z,476.20
2018-11-26T19:08:09.945Z,477.80
2018-11-26T19:10:41.449Z,447.00
2018-11-26T19:13:14.920Z,456.60
2018-11-26T19:15:48.306Z,483.40
2018-11-26T19:18:26.249Z,494.00
2018-11-26T19:20:58.168Z,485.20
2018-11-26T19:23:29.865Z,519.40
2018-11-26T19:26:01.952Z,516.80
2018-11-26T19:28:33.495Z,507.60
2018-11-26T19:31:05.470Z,489.80
2018-11-26T19:33:37.423Z,471.60
2018-11-26T19:36:09.762Z,456.83
2018-11-26T19:38:42.018Z,433.80
2018-11-26T19:41:14.412Z,423.20
2018-11-26T19:43:46.960Z,437.00
2018-11-26T19:46:19.071Z,441.00
2018-11-26T19:48:50.893Z,433.80
2018-11-26T19:51:23.149Z,447.60
2018-11-26T19:53:54.987Z,400.40
2018-11-26T19:57:51.135Z,378.60
2018-11-26T20:00:24.941Z,393.20
2018-11-26T20:03:00.235Z,387.60
2018-11-26T20:06:06.272Z,387.40
2018-11-26T20:08:38.282Z,346.60
2018-11-26T20:11:10.135Z,357.40
2018-11-26T20:13:41.785Z,367.60
2018-11-26T20:16:15.441Z,350.40
2018-11-26T20:18:47.338Z,375.20
2018-11-26T20:21:19.405Z,341.60
2018-11-26T20:23:51.272Z,337.60
2018-11-26T20:26:24.009Z,342.20
2018-11-26T20:28:57.058Z,349.20
2018-11-26T20:31:28.331Z,332.25
2018-11-26T20:34:00.146Z,334.75
2018-11-26T20:36:32.089Z,354.50
2018-11-26T20:39:05.034Z,338.50
2018-11-26T20:41:36.684Z,331.75
2018-11-26T20:44:08.749Z,331.50
2018-11-26T20:46:41.259Z,344.75
2018-11-26T20:49:13.293Z,339.00
2018-11-26T20:51:45.551Z,358.25
2018-11-26T20:54:17.080Z,349.00
2018-11-26T20:56:48.690Z,349.75
2018-11-26T20:59:20.535Z,324.75
2018-11-26T21:01:52.504Z,352.50
2018-11-26T21:04:24.564Z,344.50
2018-11-26T21:06:56.334Z,335.50
2018-11-26T21:09:28.210Z,347.50
2018-11-26T21:12:00.069Z,328.25
2018-11-26T21:14:31.700Z,331.00
2018-11-26T21:17:04.196Z,324.50
2018-11-26T21:19:36.019Z,347.25
2018-11-26T21:22:08.235Z,328.25
2018-11-26T21:24:40.391Z,337.75
2018-11-26T21:27:13.644Z,332.25
2018-11-26T21:29:46.002Z,313.50
2018-11-26T21:32:17.628Z,330.00
2018-11-26T21:34:49.224Z,334.50
2018-11-26T21:37:21.183Z,330.50
2018-11-26T21:39:53.111Z,313.75
2018-11-26T21:42:25.320Z,315.25
2018-11-26T21:44:57.292Z,290.50
2018-11-26T21:47:30.251Z,319.25
2018-11-26T21:50:02.395Z,308.75
2018-11-26T21:52:35.027Z,307.00
2018-11-26T21:55:07.033Z,316.50
2018-11-26T21:57:39.124Z,321.25
2018-11-26T22:00:45.235Z,322.00
2018-11-26T22:03:17.334Z,302.75
2018-11-26T22:05:48.866Z,302.50
2018-11-26T22:08:21.024Z,320.25
2018-11-26T22:10:52.830Z,310.00
2018-11-26T22:13:24.984Z,310.00
2018-11-26T22:15:56.779Z,297.25
2018-11-26T22:18:29.175Z,302.00
2018-11-26T22:21:00.985Z,307.00
2018-11-26T22:23:32.631Z,294.50
2018-11-26T22:26:04.345Z,329.00
2018-11-26T22:28:36.573Z,315.25
2018-11-26T22:31:08.551Z,306.75
2018-11-26T22:33:40.097Z,309.00
2018-11-26T22:36:12.149Z,319.50
2018-11-26T22:38:43.885Z,324.75
2018-11-26T22:41:15.847Z,315.00
2018-11-26T22:43:47.741Z,303.75
2018-11-26T22:46:19.543Z,293.50
2018-11-26T22:48:51.665Z,303.25
2018-11-26T22:51:23.184Z,311.25
2018-11-26T22:53:56.147Z,307.50
2018-11-26T22:56:27.684Z,292.50
2018-11-26T22:58:59.355Z,280.00
2018-11-26T23:01:30.868Z,299.00
2018-11-26T23:04:03.066Z,288.00
2018-11-26T23:06:34.574Z,293.25
2018-11-26T23:09:08.455Z,303.25
2018-11-26T23:11:40.110Z,286.50
2018-11-26T23:14:13.321Z,299.25
2018-11-26T23:16:45.186Z,290.50
2018-11-26T23:19:17.015Z,294.25
2018-11-26T23:21:48.885Z,303.75
2018-11-26T23:24:20.885Z,297.50
2018-11-26T23:26:52.645Z,281.00
2018-11-26T23:29:24.418Z,293.75
2018-11-26T23:31:56.509Z,301.25
2018-11-26T23:34:28.198Z,296.50
2018-11-26T23:37:00.203Z,278.00
2018-11-26T23:39:31.893Z,293.50
2018-11-26T23:42:03.708Z,296.75
2018-11-26T23:44:35.576Z,286.00
2018-11-26T23:47:07.590Z,283.75
2018-11-26T23:49:39.680Z,290.00
2018-11-26T23:52:11.423Z,285.75
2018-11-26T23:54:43.684Z,298.00
2018-11-26T23:57:15.934Z,295.75
2018-11-26T23:59:48.226Z,291.50
